Destinations Vilnius International Airport

Vilnius International Airport (EYVI / VNO)

Flights to Vilnius International Airport

Flight number From ETE Dispatch
SPY-2298 EGFF Cardiff International Airport 03:05
SPY-2414 EGPH Edinburgh Airport 03:00

Flights from Vilnius International Airport

Flight number To ETE Dispatch
SPY-2299 EGFF Cardiff International Airport 03:05
SPY-2415 EGPH Edinburgh Airport 03:00
About

Vilnius International Airport facts

Vilnius International Airport is located in Vilnius at an elevation of 197.5 meters or 648 feet.

Currently, Speedy Airlines serves 4 flights to and from Vilnius International Airport.

Detailed airport info

Route map

Weather

Current weather

METAR

METAR

Metar data retrieved Sunday, 21 July 2024 at 18:55 UTC

EYVI 211820Z 07004KT CAVOK 21/15 Q1011 NOSIG
Wind Temperature
4 kt 21c